sensor_id;sensor_type;location;lat;lon;timestamp;pressure;altitude;pressure_sealevel;temperature;humidity
4586;BME280;2305;50.118;8.952;2022-11-21T00:00:41;99497.84;;;7.10;100.00
4586;BME280;2305;50.118;8.952;2022-11-21T00:03:09;99485.19;;;7.15;100.00
4586;BME280;2305;50.118;8.952;2022-11-21T00:05:39;99488.44;;;7.07;100.00
4586;BME280;2305;50.118;8.952;2022-11-21T00:08:09;99491.03;;;7.07;100.00
4586;BME280;2305;50.118;8.952;2022-11-21T00:10:38;99494.94;;;7.13;100.00
4586;BME280;2305;50.118;8.952;2022-11-21T00:13:11;99483.41;;;7.15;100.00
4586;BME280;2305;50.118;8.952;2022-11-21T00:15:39;99480.69;;;7.06;100.00
4586;BME280;2305;50.118;8.952;2022-11-21T00:18:07;99486.88;;;7.05;100.00
4586;BME280;2305;50.118;8.952;2022-11-21T00:20:39;99484.75;;;6.99;100.00
4586;BME280;2305;50.118;8.952;2022-11-21T00:23:09;99481.44;;;6.97;100.00
4586;BME280;2305;50.118;8.952;2022-11-21T00:25:38;99480.97;;;6.92;100.00
4586;BME280;2305;50.118;8.952;2022-11-21T00:28:08;99482.66;;;6.93;100.00
4586;BME280;2305;50.118;8.952;2022-11-21T00:30:36;99469.19;;;6.97;100.00
4586;BME280;2305;50.118;8.952;2022-11-21T00:33:04;99471.06;;;7.06;100.00
4586;BME280;2305;50.118;8.952;2022-11-21T00:35:33;99467.38;;;6.98;100.00
4586;BME280;2305;50.118;8.952;2022-11-21T00:38:01;99469.78;;;6.90;100.00
4586;BME280;2305;50.118;8.952;2022-11-21T00:40:30;99468.25;;;6.87;100.00
4586;BME280;2305;50.118;8.952;2022-11-21T00:42:58;99467.28;;;6.88;100.00
4586;BME280;2305;50.118;8.952;2022-11-21T00:45:29;99458.63;;;6.88;100.00
4586;BME280;2305;50.118;8.952;2022-11-21T00:47:57;99459.44;;;6.88;100.00
4586;BME280;2305;50.118;8.952;2022-11-21T00:50:25;99464.44;;;6.91;100.00
4586;BME280;2305;50.118;8.952;2022-11-21T00:52:57;99482.28;;;6.97;100.00
4586;BME280;2305;50.118;8.952;2022-11-21T00:55:25;99463.19;;;7.06;100.00
4586;BME280;2305;50.118;8.952;2022-11-21T00:57:55;99450.09;;;7.06;100.00
4586;BME280;2305;50.118;8.952;2022-11-21T01:00:25;99445.81;;;7.05;100.00
4586;BME280;2305;50.118;8.952;2022-11-21T01:02:53;99476.28;;;7.06;100.00
4586;BME280;2305;50.118;8.952;2022-11-21T01:05:22;99449.47;;;7.14;100.00
4586;BME280;2305;50.118;8.952;2022-11-21T01:07:50;99455.66;;;7.13;100.00
4586;BME280;2305;50.118;8.952;2022-11-21T01:10:18;99442.16;;;7.28;100.00
4586;BME280;2305;50.118;8.952;2022-11-21T01:12:46;99454.09;;;7.21;100.00
4586;BME280;2305;50.118;8.952;2022-11-21T01:15:15;99447.88;;;7.22;100.00
4586;BME280;2305;50.118;8.952;2022-11-21T01:17:43;99449.59;;;7.12;100.00
4586;BME280;2305;50.118;8.952;2022-11-21T01:20:14;99445.66;;;7.18;100.00
4586;BME280;2305;50.118;8.952;2022-11-21T01:22:42;99448.00;;;7.21;100.00
4586;BME280;2305;50.118;8.952;2022-11-21T01:25:11;99443.16;;;7.16;100.00
4586;BME280;2305;50.118;8.952;2022-11-21T01:27:39;99434.84;;;7.11;100.00
4586;BME280;2305;50.118;8.952;2022-11-21T01:30:11;99440.22;;;7.10;100.00
4586;BME280;2305;50.118;8.952;2022-11-21T01:32:41;99441.94;;;7.20;100.00
4586;BME280;2305;50.118;8.952;2022-11-21T01:35:10;99449.47;;;7.14;100.00
4586;BME280;2305;50.118;8.952;2022-11-21T01:37:40;99455.66;;;7.13;100.00
4586;BME280;2305;50.118;8.952;2022-11-21T01:40:10;99444.56;;;7.20;100.00
4586;BME280;2305;50.118;8.952;2022-11-21T01:42:52;99453.13;;;7.22;100.00
4586;BME280;2305;50.118;8.952;2022-11-21T01:48:36;99445.94;;;7.35;100.00
4586;BME280;2305;50.118;8.952;2022-11-21T01:51:09;99439.72;;;7.36;100.00
4586;BME280;2305;50.118;8.952;2022-11-21T01:53:43;99436.28;;;7.36;100.00
4586;BME280;2305;50.118;8.952;2022-11-21T01:56:13;99419.91;;;7.43;100.00
4586;BME280;2305;50.118;8.952;2022-11-21T01:58:44;99429.13;;;7.38;100.00
4586;BME280;2305;50.118;8.952;2022-11-21T02:01:13;99423.63;;;7.41;100.00
4586;BME280;2305;50.118;8.952;2022-11-21T02:03:46;99424.09;;;7.46;100.00
4586;BME280;2305;50.118;8.952;2022-11-21T02:06:19;99432.91;;;7.45;100.00
4586;BME280;2305;50.118;8.952;2022-11-21T02:08:47;99419.53;;;7.48;100.00
4586;BME280;2305;50.118;8.952;2022-11-21T02:11:20;99423.63;;;7.41;100.00
4586;BME280;2305;50.118;8.952;2022-11-21T02:13:52;99416.97;;;7.57;100.00
4586;BME280;2305;50.118;8.952;2022-11-21T02:16:22;99423.06;;;7.58;100.00
4586;BME280;2305;50.118;8.952;2022-11-21T02:18:52;99429.13;;;7.58;100.00
4586;BME280;2305;50.118;8.952;2022-11-21T02:21:31;99423.13;;;7.47;100.00
4586;BME280;2305;50.118;8.952;2022-11-21T02:24:03;99434.84;;;7.43;100.00
4586;BME280;2305;50.118;8.952;2022-11-21T02:26:38;99419.50;;;7.59;100.00
4586;BME280;2305;50.118;8.952;2022-11-21T02:29:07;99418.91;;;7.55;100.00
4586;BME280;2305;50.118;8.952;2022-11-21T02:31:35;99423.69;;;7.50;100.00
4586;BME280;2305;50.118;8.952;2022-11-21T02:34:04;99427.97;;;7.51;100.00
4586;BME280;2305;50.118;8.952;2022-11-21T02:36:40;99430.41;;;7.43;100.00
4586;BME280;2305;50.118;8.952;2022-11-21T02:39:12;99436.91;;;7.49;100.00
4586;BME280;2305;50.118;8.952;2022-11-21T02:41:49;99443.13;;;7.48;100.00
4586;BME280;2305;50.118;8.952;2022-11-21T02:44:22;99443.84;;;7.50;100.00
4586;BME280;2305;50.118;8.952;2022-11-21T02:46:52;99447.84;;;7.54;100.00
4586;BME280;2305;50.118;8.952;2022-11-21T02:49:30;99444.66;;;7.50;100.00
4586;BME280;2305;50.118;8.952;2022-11-21T02:52:02;99451.56;;;7.51;100.00
4586;BME280;2305;50.118;8.952;2022-11-21T02:54:31;99449.53;;;7.55;100.00
4586;BME280;2305;50.118;8.952;2022-11-21T02:57:02;99451.06;;;7.57;100.00
4586;BME280;2305;50.118;8.952;2022-11-21T02:59:30;99446.59;;;7.48;100.00
4586;BME280;2305;50.118;8.952;2022-11-21T03:01:58;99441.47;;;7.47;100.00
4586;BME280;2305;50.118;8.952;2022-11-21T03:04:26;99458.84;;;7.48;100.00
4586;BME280;2305;50.118;8.952;2022-11-21T03:06:55;99457.69;;;7.41;100.00
4586;BME280;2305;50.118;8.952;2022-11-21T03:09:23;99447.06;;;7.53;100.00
4586;BME280;2305;50.118;8.952;2022-11-21T03:11:51;99449.72;;;7.42;100.00
4586;BME280;2305;50.118;8.952;2022-11-21T03:14:21;99454.56;;;7.47;100.00
4586;BME280;2305;50.118;8.952;2022-11-21T03:16:49;99458.53;;;7.41;100.00
4586;BME280;2305;50.118;8.952;2022-11-21T03:19:20;99464.84;;;7.39;100.00
4586;BME280;2305;50.118;8.952;2022-11-21T03:21:48;99462.63;;;7.34;100.00
4586;BME280;2305;50.118;8.952;2022-11-21T03:24:18;99473.91;;;7.35;100.00
4586;BME280;2305;50.118;8.952;2022-11-21T03:26:47;99469.72;;;7.43;100.00
4586;BME280;2305;50.118;8.952;2022-11-21T03:29:15;99470.78;;;7.41;100.00
4586;BME280;2305;50.118;8.952;2022-11-21T03:31:44;99471.75;;;7.40;100.00
4586;BME280;2305;50.118;8.952;2022-11-21T03:34:12;99472.59;;;7.40;100.00
4586;BME280;2305;50.118;8.952;2022-11-21T03:36:40;99469.22;;;7.49;100.00
4586;BME280;2305;50.118;8.952;2022-11-21T03:39:08;99468.38;;;7.49;100.00
4586;BME280;2305;50.118;8.952;2022-11-21T03:41:38;99466.47;;;7.51;100.00
4586;BME280;2305;50.118;8.952;2022-11-21T03:44:08;99471.22;;;7.57;100.00
4586;BME280;2305;50.118;8.952;2022-11-21T03:46:38;99471.44;;;7.54;100.00
4586;BME280;2305;50.118;8.952;2022-11-21T03:49:08;99470.19;;;7.48;100.00
4586;BME280;2305;50.118;8.952;2022-11-21T03:51:37;99474.34;;;7.51;100.00
4586;BME280;2305;50.118;8.952;2022-11-21T03:54:08;99467.09;;;7.43;100.00
4586;BME280;2305;50.118;8.952;2022-11-21T03:56:36;99469.13;;;7.40;100.00
4586;BME280;2305;50.118;8.952;2022-11-21T03:59:05;99462.13;;;7.40;100.00
4586;BME280;2305;50.118;8.952;2022-11-21T04:01:33;99464.97;;;7.37;100.00
4586;BME280;2305;50.118;8.952;2022-11-21T04:04:03;99461.53;;;7.37;100.00
4586;BME280;2305;50.118;8.952;2022-11-21T04:06:32;99463.44;;;7.35;100.00
4586;BME280;2305;50.118;8.952;2022-11-21T04:09:00;99463.97;;;7.29;100.00
4586;BME280;2305;50.118;8.952;2022-11-21T04:11:28;99468.22;;;7.30;100.00
4586;BME280;2305;50.118;8.952;2022-11-21T04:13:56;99473.78;;;7.36;100.00
4586;BME280;2305;50.118;8.952;2022-11-21T04:16:25;99477.75;;;7.31;100.00
4586;BME280;2305;50.118;8.952;2022-11-21T04:18:53;99467.28;;;7.31;100.00
4586;BME280;2305;50.118;8.952;2022-11-21T04:21:21;99469.06;;;7.30;100.00
4586;BME280;2305;50.118;8.952;2022-11-21T04:23:50;99470.28;;;7.26;100.00
4586;BME280;2305;50.118;8.952;2022-11-21T04:26:18;99473.72;;;7.27;100.00
4586;BME280;2305;50.118;8.952;2022-11-21T04:28:46;99483.22;;;7.28;100.00
4586;BME280;2305;50.118;8.952;2022-11-21T04:31:14;99480.00;;;7.35;100.00
4586;BME280;2305;50.118;8.952;2022-11-21T04:33:42;99480.56;;;7.39;100.00
4586;BME280;2305;50.118;8.952;2022-11-21T04:36:10;99474.19;;;7.32;100.00
4586;BME280;2305;50.118;8.952;2022-11-21T04:38:38;99476.78;;;7.32;100.00
4586;BME280;2305;50.118;8.952;2022-11-21T04:41:08;99471.72;;;7.51;100.00
4586;BME280;2305;50.118;8.952;2022-11-21T04:43:36;99474.66;;;7.26;100.00
4586;BME280;2305;50.118;8.952;2022-11-21T04:46:04;99465.06;;;7.15;100.00
4586;BME280;2305;50.118;8.952;2022-11-21T04:48:32;99469.44;;;7.26;100.00
4586;BME280;2305;50.118;8.952;2022-11-21T04:51:01;99465.44;;;7.11;100.00
4586;BME280;2305;50.118;8.952;2022-11-21T04:53:29;99468.69;;;7.03;100.00
4586;BME280;2305;50.118;8.952;2022-11-21T04:55:59;99475.34;;;7.07;100.00
4586;BME280;2305;50.118;8.952;2022-11-21T04:58:31;99480.56;;;7.07;100.00
4586;BME280;2305;50.118;8.952;2022-11-21T05:01:04;99479.88;;;6.94;100.00
4586;BME280;2305;50.118;8.952;2022-11-21T05:03:32;99478.72;;;6.87;100.00
4586;BME280;2305;50.118;8.952;2022-11-21T05:06:00;99475.03;;;6.90;100.00
4586;BME280;2305;50.118;8.952;2022-11-21T05:08:28;99474.22;;;6.89;100.00
4586;BME280;2305;50.118;8.952;2022-11-21T05:10:56;99468.25;;;6.87;100.00
4586;BME280;2305;50.118;8.952;2022-11-21T05:13:46;99474.81;;;6.82;100.00
4586;BME280;2305;50.118;8.952;2022-11-21T05:16:14;99480.28;;;6.79;100.00
4586;BME280;2305;50.118;8.952;2022-11-21T05:18:42;99479.19;;;6.81;100.00
4586;BME280;2305;50.118;8.952;2022-11-21T05:21:11;99481.47;;;6.86;100.00
4586;BME280;2305;50.118;8.952;2022-11-21T05:23:39;99477.31;;;6.83;100.00
4586;BME280;2305;50.118;8.952;2022-11-21T05:26:07;99475.88;;;6.79;100.00
4586;BME280;2305;50.118;8.952;2022-11-21T05:28:35;99477.91;;;6.76;100.00
4586;BME280;2305;50.118;8.952;2022-11-21T05:31:05;99493.50;;;6.77;100.00
4586;BME280;2305;50.118;8.952;2022-11-21T05:33:33;99488.16;;;6.79;100.00
4586;BME280;2305;50.118;8.952;2022-11-21T05:36:02;99487.63;;;6.85;100.00
4586;BME280;2305;50.118;8.952;2022-11-21T05:38:30;99486.34;;;6.79;100.00
4586;BME280;2305;50.118;8.952;2022-11-21T05:40:58;99490.50;;;6.82;100.00
4586;BME280;2305;50.118;8.952;2022-11-21T05:43:27;99498.34;;;6.93;100.00
4586;BME280;2305;50.118;8.952;2022-11-21T05:46:16;99497.25;;;7.06;100.00
4586;BME280;2305;50.118;8.952;2022-11-21T05:48:45;99493.44;;;6.99;100.00
4586;BME280;2305;50.118;8.952;2022-11-21T05:51:14;99499.75;;;6.97;100.00
4586;BME280;2305;50.118;8.952;2022-11-21T05:53:43;99501.03;;;7.02;100.00
4586;BME280;2305;50.118;8.952;2022-11-21T05:56:13;99505.69;;;7.10;100.00
4586;BME280;2305;50.118;8.952;2022-11-21T05:58:43;99506.38;;;7.12;100.00
4586;BME280;2305;50.118;8.952;2022-11-21T06:01:12;99502.78;;;7.24;100.00
4586;BME280;2305;50.118;8.952;2022-11-21T06:03:42;99494.22;;;7.22;100.00
4586;BME280;2305;50.118;8.952;2022-11-21T06:06:11;99502.09;;;7.22;100.00
4586;BME280;2305;50.118;8.952;2022-11-21T06:08:40;99501.13;;;7.23;100.00
4586;BME280;2305;50.118;8.952;2022-11-21T06:11:11;99502.78;;;7.24;100.00
4586;BME280;2305;50.118;8.952;2022-11-21T06:13:40;99496.22;;;7.29;100.00
4586;BME280;2305;50.118;8.952;2022-11-21T06:16:12;99510.84;;;7.32;100.00
4586;BME280;2305;50.118;8.952;2022-11-21T06:18:44;99508.34;;;7.30;100.00
4586;BME280;2305;50.118;8.952;2022-11-21T06:21:17;99501.22;;;7.32;100.00
4586;BME280;2305;50.118;8.952;2022-11-21T06:23:47;99500.88;;;7.26;100.00
4586;BME280;2305;50.118;8.952;2022-11-21T06:26:19;99497.09;;;7.19;100.00
4586;BME280;2305;50.118;8.952;2022-11-21T06:28:48;99497.72;;;7.11;100.00
4586;BME280;2305;50.118;8.952;2022-11-21T06:31:18;99498.78;;;7.09;100.00
4586;BME280;2305;50.118;8.952;2022-11-21T06:33:52;99493.06;;;7.04;100.00
4586;BME280;2305;50.118;8.952;2022-11-21T06:36:21;99492.38;;;7.02;100.00
4586;BME280;2305;50.118;8.952;2022-11-21T06:38:51;99492.28;;;6.92;100.00
4586;BME280;2305;50.118;8.952;2022-11-21T06:41:21;99507.84;;;7.05;100.00
4586;BME280;2305;50.118;8.952;2022-11-21T06:43:57;99505.63;;;6.89;100.00
4586;BME280;2305;50.118;8.952;2022-11-21T06:46:25;99512.41;;;6.81;100.00
4586;BME280;2305;50.118;8.952;2022-11-21T06:48:55;99516.59;;;6.83;100.00
4586;BME280;2305;50.118;8.952;2022-11-21T06:51:23;99510.88;;;6.78;100.00
4586;BME280;2305;50.118;8.952;2022-11-21T06:53:53;99508.38;;;6.66;100.00
4586;BME280;2305;50.118;8.952;2022-11-21T06:56:22;99519.81;;;6.65;100.00
4586;BME280;2305;50.118;8.952;2022-11-21T06:58:51;99521.44;;;6.77;100.00
4586;BME280;2305;50.118;8.952;2022-11-21T07:01:22;99526.47;;;6.69;100.00
4586;BME280;2305;50.118;8.952;2022-11-21T07:03:51;99514.59;;;6.65;100.00
4586;BME280;2305;50.118;8.952;2022-11-21T07:06:23;99524.78;;;6.57;100.00
4586;BME280;2305;50.118;8.952;2022-11-21T07:08:52;99517.53;;;6.60;100.00
4586;BME280;2305;50.118;8.952;2022-11-21T07:11:41;99528.25;;;6.57;100.00
4586;BME280;2305;50.118;8.952;2022-11-21T07:14:09;99533.59;;;6.56;100.00
4586;BME280;2305;50.118;8.952;2022-11-21T07:16:37;99543.59;;;6.73;100.00
4586;BME280;2305;50.118;8.952;2022-11-21T07:19:05;99541.47;;;6.67;100.00
4586;BME280;2305;50.118;8.952;2022-11-21T07:21:35;99537.41;;;6.63;100.00
4586;BME280;2305;50.118;8.952;2022-11-21T07:24:07;99544.06;;;6.67;100.00
4586;BME280;2305;50.118;8.952;2022-11-21T07:26:37;99539.53;;;6.69;100.00
4586;BME280;2305;50.118;8.952;2022-11-21T07:29:04;99541.78;;;6.73;100.00
4586;BME280;2305;50.118;8.952;2022-11-21T07:31:35;99538.81;;;6.89;100.00
4586;BME280;2305;50.118;8.952;2022-11-21T07:34:05;99544.31;;;6.86;100.00
4586;BME280;2305;50.118;8.952;2022-11-21T07:36:37;99541.66;;;6.97;100.00
4586;BME280;2305;50.118;8.952;2022-11-21T07:39:05;99540.59;;;6.99;100.00
4586;BME280;2305;50.118;8.952;2022-11-21T07:41:33;99537.38;;;6.96;100.00
4586;BME280;2305;50.118;8.952;2022-11-21T07:44:02;99542.13;;;7.02;100.00
4586;BME280;2305;50.118;8.952;2022-11-21T07:46:30;99538.66;;;7.01;100.00
4586;BME280;2305;50.118;8.952;2022-11-21T07:48:58;99553.31;;;7.04;100.00
4586;BME280;2305;50.118;8.952;2022-11-21T07:51:32;99556.03;;;7.02;100.00
4586;BME280;2305;50.118;8.952;2022-11-21T07:54:01;99545.94;;;7.09;100.00
4586;BME280;2305;50.118;8.952;2022-11-21T07:56:29;99553.19;;;7.05;100.00
4586;BME280;2305;50.118;8.952;2022-11-21T07:59:00;99554.00;;;7.17;100.00
4586;BME280;2305;50.118;8.952;2022-11-21T08:01:29;99558.75;;;7.23;100.00
4586;BME280;2305;50.118;8.952;2022-11-21T08:03:58;99560.75;;;7.30;100.00
4586;BME280;2305;50.118;8.952;2022-11-21T08:06:28;99558.72;;;7.34;100.00
4586;BME280;2305;50.118;8.952;2022-11-21T08:08:58;99565.59;;;7.46;100.00
4586;BME280;2305;50.118;8.952;2022-11-21T08:11:28;99557.72;;;7.46;100.00
4586;BME280;2305;50.118;8.952;2022-11-21T08:13:57;99557.72;;;7.46;100.00
4586;BME280;2305;50.118;8.952;2022-11-21T08:16:26;99553.19;;;7.48;100.00
4586;BME280;2305;50.118;8.952;2022-11-21T08:18:58;99555.00;;;7.47;100.00
4586;BME280;2305;50.118;8.952;2022-11-21T08:21:29;99556.88;;;7.45;100.00
4586;BME280;2305;50.118;8.952;2022-11-21T08:23:58;99559.59;;;7.55;100.00
4586;BME280;2305;50.118;8.952;2022-11-21T08:26:25;99557.38;;;7.71;100.00
4586;BME280;2305;50.118;8.952;2022-11-21T08:28:55;99549.47;;;7.61;100.00
4586;BME280;2305;50.118;8.952;2022-11-21T08:31:25;99544.81;;;7.65;100.00
4586;BME280;2305;50.118;8.952;2022-11-21T08:33:54;99537.38;;;7.70;100.00
4586;BME280;2305;50.118;8.952;2022-11-21T08:36:23;99538.78;;;7.74;100.00
4586;BME280;2305;50.118;8.952;2022-11-21T08:38:51;99538.28;;;7.80;100.00
4586;BME280;2305;50.118;8.952;2022-11-21T08:41:19;99539.97;;;7.81;100.00
4586;BME280;2305;50.118;8.952;2022-11-21T08:44:06;99533.47;;;7.85;100.00
4586;BME280;2305;50.118;8.952;2022-11-21T08:46:40;99529.19;;;7.84;100.00
4586;BME280;2305;50.118;8.952;2022-11-21T08:49:11;99536.56;;;7.90;100.00
4586;BME280;2305;50.118;8.952;2022-11-21T08:51:39;99520.53;;;7.83;100.00
4586;BME280;2305;50.118;8.952;2022-11-21T08:54:09;99532.47;;;7.76;100.00
4586;BME280;2305;50.118;8.952;2022-11-21T08:56:37;99524.41;;;7.89;100.00
4586;BME280;2305;50.118;8.952;2022-11-21T08:59:06;99525.13;;;7.91;100.00
4586;BME280;2305;50.118;8.952;2022-11-21T09:01:35;99523.72;;;7.87;100.00
4586;BME280;2305;50.118;8.952;2022-11-21T09:04:06;99531.97;;;8.03;100.00
4586;BME280;2305;50.118;8.952;2022-11-21T09:06:34;99531.00;;;8.04;100.00
4586;BME280;2305;50.118;8.952;2022-11-21T09:09:04;99529.41;;;8.12;100.00
4586;BME280;2305;50.118;8.952;2022-11-21T09:11:32;99531.47;;;8.29;100.00
4586;BME280;2305;50.118;8.952;2022-11-21T09:14:03;99528.78;;;8.20;100.00
4586;BME280;2305;50.118;8.952;2022-11-21T09:16:50;99524.16;;;8.12;100.00
4586;BME280;2305;50.118;8.952;2022-11-21T09:19:37;99514.13;;;7.97;100.00
4586;BME280;2305;50.118;8.952;2022-11-21T09:22:05;99526.84;;;8.01;100.00
4586;BME280;2305;50.118;8.952;2022-11-21T09:24:34;99516.09;;;8.04;100.00
4586;BME280;2305;50.118;8.952;2022-11-21T09:27:03;99521.19;;;8.06;100.00
4586;BME280;2305;50.118;8.952;2022-11-21T09:29:34;99530.22;;;8.13;100.00
4586;BME280;2305;50.118;8.952;2022-11-21T09:32:04;99534.88;;;8.20;100.00
4586;BME280;2305;50.118;8.952;2022-11-21T09:34:32;99535.72;;;8.21;100.00
4586;BME280;2305;50.118;8.952;2022-11-21T09:37:00;99534.97;;;8.19;100.00
4586;BME280;2305;50.118;8.952;2022-11-21T09:39:28;99534.59;;;8.23;100.00
4586;BME280;2305;50.118;8.952;2022-11-21T09:42:05;99539.34;;;8.29;100.00
4586;BME280;2305;50.118;8.952;2022-11-21T09:44:48;99530.56;;;8.40;100.00
4586;BME280;2305;50.118;8.952;2022-11-21T09:47:27;99530.31;;;8.43;100.00
4586;BME280;2305;50.118;8.952;2022-11-21T09:49:59;99534.44;;;8.45;100.00
4586;BME280;2305;50.118;8.952;2022-11-21T09:52:35;99532.31;;;8.60;100.00
4586;BME280;2305;50.118;8.952;2022-11-21T09:55:06;99532.59;;;8.66;100.00
4586;BME280;2305;50.118;8.952;2022-11-21T09:57:35;99526.94;;;8.61;100.00
4586;BME280;2305;50.118;8.952;2022-11-21T10:00:12;99521.59;;;8.82;100.00
4586;BME280;2305;50.118;8.952;2022-11-21T10:02:42;99523.22;;;8.73;100.00
4586;BME280;2305;50.118;8.952;2022-11-21T10:05:13;99524.59;;;8.68;100.00
4586;BME280;2305;50.118;8.952;2022-11-21T10:07:43;99521.97;;;8.68;100.00
4586;BME280;2305;50.118;8.952;2022-11-21T10:10:19;99515.38;;;8.82;100.00
4586;BME280;2305;50.118;8.952;2022-11-21T10:13:01;99503.09;;;8.83;100.00
4586;BME280;2305;50.118;8.952;2022-11-21T10:15:46;99503.06;;;8.74;100.00
4586;BME280;2305;50.118;8.952;2022-11-21T10:18:38;99498.94;;;8.81;100.00
4586;BME280;2305;50.118;8.952;2022-11-21T10:21:26;99493.84;;;8.88;100.00
4586;BME280;2305;50.118;8.952;2022-11-21T10:24:11;99497.75;;;9.03;100.00
4586;BME280;2305;50.118;8.952;2022-11-21T10:26:51;99495.00;;;9.14;100.00
4586;BME280;2305;50.118;8.952;2022-11-21T10:29:22;99494.72;;;9.17;100.00
4586;BME280;2305;50.118;8.952;2022-11-21T10:31:56;99481.88;;;9.24;100.00
4586;BME280;2305;50.118;8.952;2022-11-21T10:34:34;99482.56;;;9.16;100.00
4586;BME280;2305;50.118;8.952;2022-11-21T10:37:45;99474.66;;;9.16;100.00
4586;BME280;2305;50.118;8.952;2022-11-21T10:40:31;99491.09;;;9.09;100.00
4586;BME280;2305;50.118;8.952;2022-11-21T10:43:03;99473.69;;;9.08;100.00
4586;BME280;2305;50.118;8.952;2022-11-21T10:45:50;99479.25;;;9.14;100.00
4586;BME280;2305;50.118;8.952;2022-11-21T10:48:21;99465.81;;;9.17;100.00
4586;BME280;2305;50.118;8.952;2022-11-21T10:51:11;99458.06;;;9.25;100.00
4586;BME280;2305;50.118;8.952;2022-11-21T10:53:42;99451.16;;;9.24;100.00
4586;BME280;2305;50.118;8.952;2022-11-21T10:56:32;99448.66;;;9.32;100.00
4586;BME280;2305;50.118;8.952;2022-11-21T10:59:12;99447.44;;;9.46;100.00
4586;BME280;2305;50.118;8.952;2022-11-21T11:01:56;99443.09;;;9.64;100.00
4586;BME280;2305;50.118;8.952;2022-11-21T11:04:29;99435.75;;;9.67;100.00
4586;BME280;2305;50.118;8.952;2022-11-21T11:07:22;99433.81;;;9.69;100.00
4586;BME280;2305;50.118;8.952;2022-11-21T11:10:13;99431.63;;;9.65;100.00
4586;BME280;2305;50.118;8.952;2022-11-21T11:12:43;99441.31;;;9.74;100.00
4586;BME280;2305;50.118;8.952;2022-11-21T11:16:05;99433.00;;;9.78;100.00
4586;BME280;2305;50.118;8.952;2022-11-21T11:18:37;99422.31;;;9.80;100.00
4586;BME280;2305;50.118;8.952;2022-11-21T11:21:16;99423.16;;;9.80;100.00
4586;BME280;2305;50.118;8.952;2022-11-21T11:23:51;99404.19;;;9.77;100.00
4586;BME280;2305;50.118;8.952;2022-11-21T11:26:24;99407.06;;;9.83;100.00
4586;BME280;2305;50.118;8.952;2022-11-21T11:29:07;99402.50;;;9.85;100.00
4586;BME280;2305;50.118;8.952;2022-11-21T11:31:43;99396.88;;;9.71;100.00
4586;BME280;2305;50.118;8.952;2022-11-21T11:34:16;99393.00;;;9.65;100.00
4586;BME280;2305;50.118;8.952;2022-11-21T11:37:07;99390.38;;;9.56;100.00
4586;BME280;2305;50.118;8.952;2022-11-21T11:39:44;99379.06;;;9.46;100.00
4586;BME280;2305;50.118;8.952;2022-11-21T11:42:38;99376.84;;;9.51;100.00
4586;BME280;2305;50.118;8.952;2022-11-21T11:45:39;99369.22;;;9.57;100.00
4586;BME280;2305;50.118;8.952;2022-11-21T11:48:27;99357.38;;;9.80;100.00
4586;BME280;2305;50.118;8.952;2022-11-21T11:51:00;99364.81;;;10.04;100.00
4586;BME280;2305;50.118;8.952;2022-11-21T11:53:38;99368.31;;;10.22;100.00
4586;BME280;2305;50.118;8.952;2022-11-21T11:56:15;99361.41;;;10.21;100.00
4586;BME280;2305;50.118;8.952;2022-11-21T11:58:47;99360.41;;;10.22;100.00
4586;BME280;2305;50.118;8.952;2022-11-21T12:01:19;99354.56;;;10.28;100.00
4586;BME280;2305;50.118;8.952;2022-11-21T12:03:55;99350.00;;;10.47;100.00
4586;BME280;2305;50.118;8.952;2022-11-21T12:06:28;99349.16;;;10.74;100.00
4586;BME280;2305;50.118;8.952;2022-11-21T12:09:26;99343.91;;;11.09;100.00
4586;BME280;2305;50.118;8.952;2022-11-21T12:12:04;99341.25;;;10.91;100.00
4586;BME280;2305;50.118;8.952;2022-11-21T12:14:56;99343.81;;;10.83;100.00
4586;BME280;2305;50.118;8.952;2022-11-21T12:17:49;99337.56;;;10.49;100.00
4586;BME280;2305;50.118;8.952;2022-11-21T12:20:23;99329.28;;;10.17;100.00
4586;BME280;2305;50.118;8.952;2022-11-21T12:22:55;99334.13;;;9.85;100.00
4586;BME280;2305;50.118;8.952;2022-11-21T12:25:28;99317.38;;;9.77;100.00
4586;BME280;2305;50.118;8.952;2022-11-21T12:28:04;99318.53;;;9.65;100.00
4586;BME280;2305;50.118;8.952;2022-11-21T12:30:55;99310.16;;;10.15;100.00
4586;BME280;2305;50.118;8.952;2022-11-21T12:33:28;99304.38;;;10.56;100.00
4586;BME280;2305;50.118;8.952;2022-11-21T12:36:09;99296.81;;;10.96;100.00
4586;BME280;2305;50.118;8.952;2022-11-21T12:38:56;99296.81;;;10.96;100.00
4586;BME280;2305;50.118;8.952;2022-11-21T12:41:34;99290.16;;;10.84;100.00
4586;BME280;2305;50.118;8.952;2022-11-21T12:44:57;99285.56;;;10.69;100.00
4586;BME280;2305;50.118;8.952;2022-11-21T12:47:48;99286.28;;;10.61;100.00
4586;BME280;2305;50.118;8.952;2022-11-21T12:50:40;99275.47;;;10.47;100.00
4586;BME280;2305;50.118;8.952;2022-11-21T12:53:36;99265.22;;;10.61;100.00
4586;BME280;2305;50.118;8.952;2022-11-21T12:56:34;99264.09;;;10.64;100.00
4586;BME280;2305;50.118;8.952;2022-11-21T12:59:12;99270.94;;;10.74;100.00
4586;BME280;2305;50.118;8.952;2022-11-21T13:01:55;99265.69;;;10.57;100.00
4586;BME280;2305;50.118;8.952;2022-11-21T13:04:34;99273.97;;;10.44;100.00
4586;BME280;2305;50.118;8.952;2022-11-21T13:07:05;99268.09;;;10.50;100.00
4586;BME280;2305;50.118;8.952;2022-11-21T13:09:40;99273.41;;;10.23;100.00
4586;BME280;2305;50.118;8.952;2022-11-21T13:12:13;99280.47;;;10.05;100.00
4586;BME280;2305;50.118;8.952;2022-11-21T13:14:52;99269.56;;;9.91;100.00
4586;BME280;2305;50.118;8.952;2022-11-21T13:17:38;99256.78;;;10.05;100.00
4586;BME280;2305;50.118;8.952;2022-11-21T13:20:16;99255.88;;;10.14;100.00
4586;BME280;2305;50.118;8.952;2022-11-21T13:22:54;99250.66;;;10.49;100.00
4586;BME280;2305;50.118;8.952;2022-11-21T13:25:39;99242.28;;;10.54;100.00
4586;BME280;2305;50.118;8.952;2022-11-21T13:28:39;99240.84;;;10.59;100.00
4586;BME280;2305;50.118;8.952;2022-11-21T13:31:29;99236.34;;;10.69;100.00
4586;BME280;2305;50.118;8.952;2022-11-21T13:34:01;99233.69;;;10.87;100.00
4586;BME280;2305;50.118;8.952;2022-11-21T13:36:38;99236.09;;;10.80;100.00
4586;BME280;2305;50.118;8.952;2022-11-21T13:39:33;99239.06;;;10.42;100.00
4586;BME280;2305;50.118;8.952;2022-11-21T13:42:10;99236.25;;;10.26;100.00
4586;BME280;2305;50.118;8.952;2022-11-21T13:44:58;99223.00;;;10.18;100.00
4586;BME280;2305;50.118;8.952;2022-11-21T13:47:52;99217.75;;;10.36;100.00
4586;BME280;2305;50.118;8.952;2022-11-21T13:56:45;99208.44;;;10.06;100.00
4586;BME280;2305;50.118;8.952;2022-11-21T13:59:33;99209.63;;;10.12;100.00
4586;BME280;2305;50.118;8.952;2022-11-21T14:02:31;99201.81;;;10.20;100.00